createdAt,value
2022-12-12T00:00:54.058Z,11.65
2022-12-12T00:03:24.143Z,11.68
2022-12-12T00:05:57.235Z,12.40
2022-12-12T00:08:27.512Z,11.63
2022-12-12T00:11:00.123Z,9.45
2022-12-12T00:13:30.365Z,11.27
2022-12-12T00:16:00.332Z,11.82
2022-12-12T00:18:30.454Z,10.95
2022-12-12T00:21:00.811Z,11.70
2022-12-12T00:23:30.838Z,11.75
2022-12-12T00:26:05.623Z,12.07
2022-12-12T00:28:35.934Z,12.63
2022-12-12T00:31:06.204Z,10.38
2022-12-12T00:33:36.207Z,10.82
2022-12-12T00:36:06.217Z,11.38
2022-12-12T00:38:36.473Z,11.35
2022-12-12T00:41:09.100Z,10.23
2022-12-12T00:43:39.384Z,10.00
2022-12-12T00:46:09.642Z,12.68
2022-12-12T00:48:39.632Z,9.20
2022-12-12T00:51:12.042Z,11.02
2022-12-12T00:53:42.346Z,11.45
2022-12-12T00:56:15.156Z,12.57
2022-12-12T00:58:46.551Z,10.55
2022-12-12T01:01:18.137Z,13.20
2022-12-12T01:03:48.443Z,11.38
2022-12-12T01:06:18.711Z,11.20
2022-12-12T01:08:48.935Z,8.95
2022-12-12T01:11:22.020Z,12.00
2022-12-12T01:13:54.071Z,9.43
2022-12-12T01:16:24.491Z,8.90
2022-12-12T01:18:54.865Z,12.20
2022-12-12T01:21:25.272Z,10.93
2022-12-12T01:23:55.655Z,8.63
2022-12-12T01:26:28.410Z,11.23
2022-12-12T01:28:58.412Z,11.95
2022-12-12T01:31:28.392Z,9.82
2022-12-12T01:33:58.759Z,11.43
2022-12-12T01:36:29.188Z,11.05
2022-12-12T01:39:00.795Z,10.38
2022-12-12T01:41:33.428Z,9.85
2022-12-12T01:44:04.789Z,9.05
2022-12-12T01:46:39.508Z,9.52
2022-12-12T01:49:31.245Z,8.93
2022-12-12T01:52:03.649Z,13.02
2022-12-12T01:54:37.427Z,7.03
2022-12-12T01:57:13.216Z,10.80
2022-12-12T01:59:43.690Z,10.63
2022-12-12T02:02:13.918Z,10.60
2022-12-12T02:04:44.940Z,9.10
2022-12-12T02:07:15.567Z,7.38
2022-12-12T02:09:45.856Z,8.02
2022-12-12T02:12:18.754Z,7.65
2022-12-12T02:14:51.934Z,9.50
2022-12-12T02:17:51.636Z,7.80
2022-12-12T02:21:01.716Z,9.43
2022-12-12T02:24:26.219Z,9.77
2022-12-12T02:27:34.620Z,9.27
2022-12-12T02:30:19.401Z,10.15
2022-12-12T02:33:10.091Z,9.75
2022-12-12T02:35:56.783Z,10.48
2022-12-12T02:38:32.641Z,10.23
2022-12-12T02:41:14.630Z,7.10
2022-12-12T02:43:51.799Z,9.32
2022-12-12T02:46:28.282Z,10.25
2022-12-12T02:49:06.002Z,9.27
2022-12-12T02:51:37.551Z,10.48
2022-12-12T02:54:08.970Z,9.60
2022-12-12T02:56:51.790Z,10.40
2022-12-12T02:59:27.115Z,8.18
2022-12-12T03:02:27.917Z,7.25
2022-12-12T03:05:29.411Z,9.85
2022-12-12T03:08:08.161Z,6.68
2022-12-12T03:10:52.782Z,8.32
2022-12-12T03:13:32.043Z,9.90
2022-12-12T03:16:12.774Z,10.25
2022-12-12T03:18:48.271Z,9.65
2022-12-12T03:21:25.527Z,7.55
2022-12-12T03:24:00.105Z,10.05
2022-12-12T03:26:33.099Z,10.07
2022-12-12T03:29:09.068Z,10.13
2022-12-12T03:31:43.641Z,10.52
2022-12-12T03:34:17.905Z,9.00
2022-12-12T03:36:55.164Z,8.15
2022-12-12T03:39:31.590Z,9.55
2022-12-12T03:42:08.700Z,9.18
2022-12-12T03:44:44.023Z,9.07
2022-12-12T03:47:17.059Z,10.82
2022-12-12T03:49:50.510Z,9.90
2022-12-12T03:52:28.647Z,9.13
2022-12-12T03:55:05.569Z,7.63
2022-12-12T03:57:40.731Z,7.90
2022-12-12T04:00:15.415Z,6.78
2022-12-12T04:02:52.328Z,9.32
2022-12-12T04:05:26.107Z,6.55
2022-12-12T04:08:07.821Z,9.85
2022-12-12T04:10:57.313Z,9.43
2022-12-12T04:13:33.716Z,9.80
2022-12-12T04:16:07.474Z,7.68
2022-12-12T04:18:41.939Z,6.68
2022-12-12T04:21:35.126Z,10.25
2022-12-12T04:24:19.273Z,9.05
2022-12-12T04:26:55.122Z,7.68
2022-12-12T04:29:36.415Z,9.98
2022-12-12T04:32:12.747Z,9.45
2022-12-12T04:34:48.585Z,6.88
2022-12-12T04:37:22.330Z,7.47
2022-12-12T04:39:58.894Z,9.45
2022-12-12T04:42:32.500Z,6.55
2022-12-12T04:45:11.998Z,9.45
2022-12-12T04:47:46.128Z,9.15
2022-12-12T04:50:17.372Z,9.48
2022-12-12T04:52:50.978Z,9.38
2022-12-12T04:55:26.300Z,7.28
2022-12-12T04:57:57.530Z,7.82
2022-12-12T05:00:29.636Z,7.70
2022-12-12T05:03:06.773Z,7.07
2022-12-12T05:05:42.379Z,9.20
2022-12-12T05:08:17.750Z,5.68
2022-12-12T05:10:54.705Z,6.63
2022-12-12T05:13:26.971Z,6.13
2022-12-12T05:16:00.080Z,6.80
2022-12-12T05:18:30.720Z,5.05
2022-12-12T05:21:00.930Z,6.78
2022-12-12T05:23:34.619Z,7.05
2022-12-12T05:26:12.998Z,6.78
2022-12-12T05:28:42.947Z,6.85
2022-12-12T05:31:13.233Z,7.55
2022-12-12T05:33:43.194Z,6.57
2022-12-12T05:36:13.986Z,10.68
2022-12-12T05:38:44.746Z,10.60
2022-12-12T05:41:17.484Z,9.93
2022-12-12T05:43:47.430Z,9.50
2022-12-12T05:46:17.719Z,7.55
2022-12-12T05:48:50.573Z,6.97
2022-12-12T05:51:20.961Z,8.73
2022-12-12T05:53:52.622Z,8.73
2022-12-12T05:56:25.266Z,11.45
2022-12-12T05:58:55.613Z,8.20
2022-12-12T06:01:25.874Z,5.93
2022-12-12T06:03:55.970Z,7.05
2022-12-12T06:06:26.228Z,8.95
2022-12-12T06:08:56.164Z,7.20
2022-12-12T06:11:29.014Z,9.18
2022-12-12T06:13:59.355Z,6.60
2022-12-12T06:16:29.573Z,8.60
2022-12-12T06:18:59.866Z,6.68
2022-12-12T06:21:30.412Z,6.97
2022-12-12T06:24:00.607Z,6.80
2022-12-12T06:26:33.205Z,7.22
2022-12-12T06:29:03.167Z,6.38
2022-12-12T06:31:34.086Z,5.70
2022-12-12T06:34:04.320Z,7.22
2022-12-12T06:36:34.565Z,5.57
2022-12-12T06:39:04.752Z,8.73
2022-12-12T06:41:37.624Z,6.70
2022-12-12T06:44:08.059Z,5.93
2022-12-12T06:46:38.321Z,6.15
2022-12-12T06:49:09.998Z,7.97
2022-12-12T06:51:44.454Z,8.23
2022-12-12T06:54:15.074Z,5.85
2022-12-12T06:56:48.722Z,5.85
2022-12-12T06:59:19.444Z,7.85
2022-12-12T07:01:49.772Z,6.93
2022-12-12T07:04:20.524Z,7.50
2022-12-12T07:06:50.880Z,6.00
2022-12-12T07:09:21.804Z,5.55
2022-12-12T07:11:54.552Z,5.63
2022-12-12T07:14:24.511Z,5.22
2022-12-12T07:16:54.540Z,6.63
2022-12-12T07:19:26.449Z,5.85
2022-12-12T07:24:26.317Z,5.60
2022-12-12T07:26:59.161Z,7.50
2022-12-12T07:29:29.232Z,6.90
2022-12-12T07:31:59.458Z,6.30
2022-12-12T07:34:32.627Z,6.70
2022-12-12T07:37:03.459Z,7.13
2022-12-12T07:39:33.694Z,7.65
2022-12-12T07:42:06.352Z,5.60
2022-12-12T07:44:36.375Z,6.22
2022-12-12T07:47:06.798Z,4.85
2022-12-12T07:49:36.962Z,6.65
2022-12-12T07:52:07.741Z,7.45
2022-12-12T07:54:37.680Z,8.35
2022-12-12T07:57:10.256Z,5.88
2022-12-12T07:59:40.452Z,6.50
2022-12-12T08:02:12.496Z,6.47
2022-12-12T08:04:42.779Z,5.53
2022-12-12T08:07:13.021Z,6.60
2022-12-12T08:09:43.046Z,6.38
2022-12-12T08:12:15.673Z,6.25
2022-12-12T08:14:45.691Z,8.75
2022-12-12T08:17:15.821Z,6.47
2022-12-12T08:19:45.907Z,5.97
2022-12-12T08:22:16.163Z,6.22
2022-12-12T08:24:46.385Z,6.32
2022-12-12T08:27:19.084Z,6.03
2022-12-12T08:29:49.294Z,7.20
2022-12-12T08:32:19.300Z,8.60
2022-12-12T08:34:49.560Z,8.55
2022-12-12T08:37:19.586Z,8.40
2022-12-12T08:39:54.174Z,8.35
2022-12-12T08:42:28.236Z,8.38
2022-12-12T08:44:58.337Z,8.63
2022-12-12T08:47:29.663Z,9.20
2022-12-12T08:49:59.821Z,7.47
2022-12-12T08:52:29.880Z,8.52
2022-12-12T08:54:59.891Z,8.60
2022-12-12T08:57:32.502Z,11.02
2022-12-12T09:00:02.494Z,9.27
2022-12-12T09:02:32.710Z,10.25
2022-12-12T09:05:02.794Z,9.05
2022-12-12T09:07:33.521Z,7.65
2022-12-12T09:10:04.887Z,7.90
2022-12-12T09:12:41.872Z,8.07
2022-12-12T09:15:14.622Z,7.78
2022-12-12T09:17:44.927Z,8.20
2022-12-12T09:20:14.990Z,9.55
2022-12-12T09:22:45.228Z,6.72
2022-12-12T09:25:15.678Z,8.70
2022-12-12T09:27:48.618Z,9.15
2022-12-12T09:30:18.614Z,8.32
2022-12-12T09:32:48.853Z,8.48
2022-12-12T09:35:19.138Z,7.65
2022-12-12T09:37:49.254Z,7.00
2022-12-12T09:40:21.974Z,8.80
2022-12-12T09:42:55.187Z,8.65
2022-12-12T09:45:25.632Z,7.93
2022-12-12T09:47:59.777Z,9.15
2022-12-12T09:50:33.967Z,8.95
2022-12-12T09:53:06.604Z,10.50
2022-12-12T09:55:41.934Z,10.20
2022-12-12T09:58:24.012Z,9.80
2022-12-12T10:01:03.104Z,9.57
2022-12-12T10:03:52.857Z,8.18
2022-12-12T10:06:37.095Z,10.48
2022-12-12T10:09:21.778Z,9.07
2022-12-12T10:11:55.411Z,9.23
2022-12-12T10:14:34.593Z,9.27
2022-12-12T10:17:07.632Z,10.20
2022-12-12T10:19:45.569Z,8.95
2022-12-12T10:22:24.561Z,8.07
2022-12-12T10:24:58.910Z,8.88
2022-12-12T10:27:28.919Z,8.75
2022-12-12T10:30:10.125Z,10.50
2022-12-12T10:32:50.346Z,8.90
2022-12-12T10:35:29.517Z,8.90
2022-12-12T10:38:14.044Z,8.77
2022-12-12T10:40:56.258Z,8.68
2022-12-12T10:43:31.801Z,6.75
2022-12-12T10:46:31.042Z,9.15
2022-12-12T10:49:01.254Z,8.93
2022-12-12T10:51:32.460Z,10.98
2022-12-12T10:54:02.486Z,9.48
2022-12-12T10:56:32.673Z,8.73
2022-12-12T10:59:04.250Z,7.28
2022-12-12T11:04:30.524Z,8.32
2022-12-12T11:07:00.841Z,7.30
2022-12-12T11:09:31.937Z,8.35
2022-12-12T11:12:03.764Z,8.40
2022-12-12T11:14:37.825Z,8.23
2022-12-12T11:17:24.041Z,8.80
2022-12-12T11:19:55.579Z,6.75
2022-12-12T11:22:26.419Z,9.70
2022-12-12T11:24:56.835Z,8.02
2022-12-12T11:27:30.242Z,7.53
2022-12-12T11:30:02.404Z,7.93
2022-12-12T11:32:42.128Z,6.35
2022-12-12T11:35:25.976Z,7.45
2022-12-12T11:38:00.300Z,7.97
2022-12-12T11:40:32.255Z,8.77
2022-12-12T11:43:21.030Z,7.65
2022-12-12T11:46:02.147Z,7.93
2022-12-12T11:48:47.060Z,8.60
2022-12-12T11:51:32.700Z,7.30
2022-12-12T11:54:03.529Z,8.82
2022-12-12T11:56:46.296Z,8.70
2022-12-12T11:59:50.052Z,8.48
2022-12-12T12:02:46.328Z,6.57
2022-12-12T12:05:28.472Z,7.05
2022-12-12T12:08:12.773Z,7.50
2022-12-12T12:10:56.500Z,8.70
2022-12-12T12:13:43.710Z,8.05
2022-12-12T12:16:23.410Z,9.25
2022-12-12T12:19:05.986Z,9.07
2022-12-12T12:21:47.811Z,8.25
2022-12-12T12:24:36.993Z,7.40
2022-12-12T12:27:14.006Z,7.80
2022-12-12T12:29:54.943Z,8.13
2022-12-12T12:32:34.957Z,9.07
2022-12-12T12:35:19.742Z,8.60
2022-12-12T12:40:46.146Z,7.40
2022-12-12T12:43:30.268Z,8.68
2022-12-12T12:46:05.372Z,8.48
2022-12-12T12:48:40.267Z,7.68
2022-12-12T12:51:16.420Z,7.35
2022-12-12T12:53:51.963Z,7.85
2022-12-12T12:56:27.619Z,7.35
2022-12-12T12:59:00.986Z,8.07
2022-12-12T13:01:36.893Z,7.40
2022-12-12T13:04:15.008Z,8.20
2022-12-12T13:06:50.330Z,7.60
2022-12-12T13:09:30.194Z,7.45
2022-12-12T13:12:06.846Z,6.70
2022-12-12T13:14:45.437Z,8.95
2022-12-12T13:17:21.370Z,7.97
2022-12-12T13:19:55.750Z,7.45
2022-12-12T13:22:33.181Z,8.45
2022-12-12T13:25:14.176Z,8.50
2022-12-12T13:27:47.107Z,11.63
2022-12-12T13:30:25.107Z,8.05
2022-12-12T13:33:14.547Z,7.88
2022-12-12T13:35:48.725Z,5.22
2022-12-12T13:38:25.264Z,8.20
2022-12-12T13:41:01.933Z,8.48
2022-12-12T13:43:44.326Z,8.13
2022-12-12T13:46:44.092Z,7.75
2022-12-12T13:49:35.414Z,8.07
2022-12-12T13:52:36.386Z,7.43
2022-12-12T13:55:25.663Z,8.93
2022-12-12T13:58:21.920Z,9.35
2022-12-12T14:01:12.026Z,7.43
2022-12-12T14:03:42.174Z,9.10
2022-12-12T14:06:14.522Z,8.27
2022-12-12T14:08:52.924Z,7.10
2022-12-12T14:11:37.136Z,15.75
2022-12-12T14:14:23.059Z,6.70
2022-12-12T14:16:58.016Z,7.18
2022-12-12T14:19:31.974Z,7.18
2022-12-12T14:22:02.209Z,7.00
2022-12-12T14:25:06.397Z,7.57
2022-12-12T14:28:12.335Z,6.70
2022-12-12T14:31:17.670Z,6.70
2022-12-12T14:34:12.171Z,6.78
2022-12-12T14:37:11.579Z,8.18
2022-12-12T14:40:00.346Z,5.50
2022-12-12T14:43:15.485Z,7.10
2022-12-12T14:45:39.771Z,6.55
2022-12-12T14:48:31.619Z,7.63
2022-12-12T14:51:07.739Z,7.30
2022-12-12T14:53:46.601Z,6.88
2022-12-12T14:56:18.698Z,6.70
2022-12-12T14:58:52.724Z,6.45
2022-12-12T15:01:33.019Z,7.45
2022-12-12T15:04:07.517Z,7.82
2022-12-12T15:06:40.056Z,7.82
2022-12-12T15:09:29.320Z,7.75
2022-12-12T15:12:15.408Z,7.70
2022-12-12T15:14:56.649Z,8.40
2022-12-12T15:17:30.287Z,8.07
2022-12-12T15:20:06.032Z,8.48
2022-12-12T15:22:38.743Z,6.88
2022-12-12T15:25:19.720Z,7.50
2022-12-12T15:27:56.060Z,8.23
2022-12-12T15:30:33.867Z,8.32
2022-12-12T15:33:05.064Z,7.55
2022-12-12T15:35:38.230Z,7.60
2022-12-12T15:38:14.841Z,7.55
2022-12-12T15:40:47.754Z,8.40
2022-12-12T15:43:19.816Z,8.30
2022-12-12T15:45:54.991Z,9.13
2022-12-12T15:48:26.128Z,9.50
2022-12-12T15:51:02.189Z,8.48
2022-12-12T15:53:33.937Z,9.45
2022-12-12T15:56:07.642Z,8.20
2022-12-12T15:58:40.497Z,9.90
2022-12-12T16:01:20.698Z,9.23
2022-12-12T16:04:00.183Z,8.98
2022-12-12T16:06:35.115Z,9.20
2022-12-12T16:09:10.459Z,9.68
2022-12-12T16:11:45.963Z,9.95
2022-12-12T16:14:38.945Z,9.40
2022-12-12T16:17:13.293Z,11.10
2022-12-12T16:19:46.580Z,8.77
2022-12-12T16:22:33.601Z,10.70
2022-12-12T16:25:21.892Z,11.25
2022-12-12T16:27:55.095Z,11.18
2022-12-12T16:30:25.251Z,11.05
2022-12-12T16:32:55.487Z,11.82
2022-12-12T16:35:27.265Z,13.05
2022-12-12T16:40:29.995Z,13.98
2022-12-12T16:43:10.988Z,14.07
2022-12-12T16:45:41.691Z,12.13
2022-12-12T16:48:17.814Z,13.45
2022-12-12T16:50:48.732Z,13.52
2022-12-12T16:53:21.925Z,11.88
2022-12-12T16:55:55.916Z,12.45
2022-12-12T16:58:26.495Z,11.40
2022-12-12T17:00:58.307Z,11.75
2022-12-12T17:03:30.039Z,9.23
2022-12-12T17:06:00.242Z,11.13
2022-12-12T17:08:32.958Z,15.65
2022-12-12T17:11:09.973Z,10.13
2022-12-12T17:13:44.996Z,11.52
2022-12-12T17:16:15.051Z,13.05
2022-12-12T17:18:45.177Z,11.95
2022-12-12T17:21:15.149Z,12.07
2022-12-12T17:23:47.773Z,12.07
2022-12-12T17:26:19.153Z,12.10
2022-12-12T17:28:49.201Z,10.10
2022-12-12T17:31:19.459Z,12.38
2022-12-12T17:33:51.020Z,8.80
2022-12-12T17:36:21.762Z,10.88
2022-12-12T17:38:54.484Z,10.95
2022-12-12T17:41:24.556Z,11.68
2022-12-12T17:43:55.648Z,10.98
2022-12-12T17:46:28.747Z,11.32
2022-12-12T17:49:02.125Z,11.70
2022-12-12T17:51:32.514Z,11.43
2022-12-12T17:54:05.166Z,10.43
2022-12-12T17:56:35.362Z,13.95
2022-12-12T17:59:07.212Z,12.05
2022-12-12T18:01:37.396Z,9.80
2022-12-12T18:04:09.159Z,9.80
2022-12-12T18:06:39.863Z,10.98
2022-12-12T18:09:12.503Z,13.18
2022-12-12T18:11:43.705Z,14.73
2022-12-12T18:14:18.764Z,12.07
2022-12-12T18:16:51.411Z,11.70
2022-12-12T18:19:22.407Z,12.10
2022-12-12T18:22:01.892Z,14.77
2022-12-12T18:24:34.933Z,13.75
2022-12-12T18:27:05.695Z,15.65
2022-12-12T18:29:35.732Z,15.25
2022-12-12T18:32:05.976Z,11.63
2022-12-12T18:34:36.221Z,16.70
2022-12-12T18:37:06.215Z,13.18
2022-12-12T18:39:38.854Z,15.77
2022-12-12T18:42:08.861Z,15.23
2022-12-12T18:44:39.142Z,10.85
2022-12-12T18:47:09.165Z,14.43
2022-12-12T18:49:39.706Z,14.52
2022-12-12T18:52:09.751Z,10.27
2022-12-12T18:54:42.359Z,9.77
2022-12-12T18:57:12.337Z,9.65
2022-12-12T18:59:42.628Z,11.55
2022-12-12T19:02:15.872Z,13.90
2022-12-12T19:04:47.237Z,13.65
2022-12-12T19:07:18.538Z,12.90
2022-12-12T19:09:51.249Z,10.40
2022-12-12T19:12:21.232Z,13.43
2022-12-12T19:17:41.452Z,13.25
2022-12-12T19:20:15.657Z,14.00
2022-12-12T19:22:46.886Z,13.48
2022-12-12T19:25:22.007Z,13.68
2022-12-12T19:27:51.970Z,13.18
2022-12-12T19:30:22.240Z,10.77
2022-12-12T19:32:52.230Z,12.05
2022-12-12T19:35:22.620Z,11.82
2022-12-12T19:37:52.704Z,14.40
2022-12-12T19:40:25.376Z,13.90
2022-12-12T19:42:55.400Z,10.57
2022-12-12T19:45:25.472Z,11.75
2022-12-12T19:47:55.536Z,11.18
2022-12-12T19:50:25.601Z,11.40
2022-12-12T19:52:55.849Z,10.38
2022-12-12T19:55:28.465Z,14.50
2022-12-12T19:57:58.471Z,11.25
2022-12-12T20:00:28.568Z,14.80
2022-12-12T20:02:58.785Z,14.63
2022-12-12T20:05:29.049Z,14.75
2022-12-12T20:08:00.125Z,11.85
2022-12-12T20:10:33.128Z,11.88
2022-12-12T20:13:03.104Z,13.13
2022-12-12T20:15:33.323Z,12.98
2022-12-12T20:18:03.504Z,13.07
2022-12-12T20:20:33.512Z,12.80
2022-12-12T20:23:03.528Z,15.60
2022-12-12T20:25:36.141Z,14.02
2022-12-12T20:28:06.340Z,13.15
2022-12-12T20:33:58.709Z,11.23
2022-12-12T20:36:30.942Z,11.27
2022-12-12T20:39:04.590Z,10.65
2022-12-12T20:41:40.440Z,11.15
2022-12-12T20:44:12.180Z,11.93
2022-12-12T20:46:44.427Z,11.63
2022-12-12T20:49:17.764Z,11.90
2022-12-12T20:51:57.262Z,11.20
2022-12-12T20:54:29.078Z,13.15
2022-12-12T20:57:02.258Z,11.35
2022-12-12T20:59:32.456Z,10.25
2022-12-12T21:02:02.988Z,11.90
2022-12-12T21:04:32.984Z,10.73
2022-12-12T21:07:03.032Z,10.90
2022-12-12T21:09:33.045Z,11.43
2022-12-12T21:12:05.795Z,12.35
2022-12-12T21:14:37.270Z,10.88
2022-12-12T21:17:07.779Z,11.02
2022-12-12T21:19:37.727Z,13.98
2022-12-12T21:22:08.521Z,11.27
2022-12-12T21:24:38.776Z,9.98
2022-12-12T21:27:11.366Z,10.40
2022-12-12T21:29:41.430Z,11.13
2022-12-12T21:32:11.393Z,10.88
2022-12-12T21:34:41.771Z,10.55
2022-12-12T21:37:12.006Z,11.55
2022-12-12T21:39:42.328Z,12.02
2022-12-12T21:42:14.928Z,11.23
2022-12-12T21:44:46.004Z,11.18
2022-12-12T21:47:16.320Z,10.65
2022-12-12T21:49:46.289Z,10.55
2022-12-12T21:52:16.541Z,10.70
2022-12-12T21:54:46.535Z,10.95
2022-12-12T21:57:24.646Z,14.10
2022-12-12T22:02:24.946Z,9.57
2022-12-12T22:04:55.002Z,10.93
2022-12-12T22:07:24.965Z,11.52
2022-12-12T22:09:58.117Z,10.48
2022-12-12T22:12:43.891Z,9.88
2022-12-12T22:15:27.531Z,10.35
2022-12-12T22:17:57.824Z,12.07
2022-12-12T22:20:27.781Z,13.10
2022-12-12T22:22:58.087Z,11.20
2022-12-12T22:25:28.084Z,10.93
2022-12-12T22:28:00.650Z,13.63
2022-12-12T22:30:30.622Z,9.77
2022-12-12T22:33:00.654Z,10.00
2022-12-12T22:35:30.926Z,11.70
2022-12-12T22:38:01.178Z,11.50
2022-12-12T22:40:31.136Z,10.60
2022-12-12T22:43:03.911Z,10.98
2022-12-12T22:45:34.133Z,10.45
2022-12-12T22:48:04.100Z,10.25
2022-12-12T22:50:34.135Z,10.35
2022-12-12T22:53:04.195Z,9.75
2022-12-12T22:55:37.127Z,10.82
2022-12-12T22:58:10.037Z,10.18
2022-12-12T23:00:40.507Z,11.40
2022-12-12T23:03:10.514Z,9.77
2022-12-12T23:05:40.825Z,10.25
2022-12-12T23:08:11.216Z,10.60
2022-12-12T23:10:41.216Z,11.98
2022-12-12T23:13:13.769Z,11.15
2022-12-12T23:15:43.782Z,12.55
2022-12-12T23:18:15.613Z,10.13
2022-12-12T23:23:17.708Z,9.40
2022-12-12T23:25:47.752Z,10.65
2022-12-12T23:28:20.365Z,13.60
2022-12-12T23:30:50.372Z,9.38
2022-12-12T23:33:20.575Z,9.05
2022-12-12T23:35:50.711Z,12.23
2022-12-12T23:38:20.933Z,9.23
2022-12-12T23:40:50.917Z,10.38
2022-12-12T23:43:23.583Z,9.77
2022-12-12T23:45:53.633Z,9.27
2022-12-12T23:48:23.655Z,8.85
2022-12-12T23:50:54.071Z,9.20
2022-12-12T23:53:24.114Z,11.75
2022-12-12T23:55:54.617Z,8.98
2022-12-12T23:58:27.329Z,11.52
